Detall de PIREP

Printer-friendly versionPDF version

[2014/04/21 10:35:00]
Flight IATA:CT1004
Pilot Number:012
Company ICAO:CAT
Aircraft Type:A320/E
PAX:150
Departing Airport: LMML
Destination Airport: LIEA
Alternate Airport:LIEO
Online: VATSIM
Route:GZO UM732 SODIO
Flight Level:F320
No Slew and time accel
No pause
Crash detect
Detect pilot in Cockpit between each 30 and 45 minutes
10:35 Zero fuel Weight: 117611 Lbs, Fuel Weight: 11247 Lbs
10:35 VATSIM:LMML 211015Z 31014KT CAVOK 21/13 Q1007 NOSIG
10:35 VATSIM:LIEA 211020Z 21013KT 9999 FEW010 SCT018 18/14 Q1007
10:36 EASTER CHARTER
10:36 Parking Brakes off
10:40 Take-off
10:40 Take off Weight: 128259 Lbs
10:40 Wind: 307º @ 014 Knots Heading: 314º
10:40 POS N35º 50´ 43´´ E014º 29´ 40´´
10:40 Gear Up: 163 Knots
10:40 Flaps:3 at 164 Knots
10:41 Flaps:2 at 173 Knots
10:41 Flaps:0 at 189 Knots
10:53 TOC
10:53 Fuel Weight: 7540 Lb
10:55 Wind:250º@085 Knots Heading: 301º Ground Speed: 411 Knots Altitude 31817 ft
11:10 Wind:253º@086 Knots Heading: 300º Ground Speed: 406 Knots Altitude 31850 ft
11:25 Wind:247º@081 Knots Heading: 299º Ground Speed: 417 Knots Altitude 31784 ft
11:27 TOD
11:27 Fuel Weight: 4174 Lb
11:40 Wind:233º@015 Knots Heading: 324º Ground Speed: 276 Knots Altitude 9799 ft
11:48 Flaps:1 at 230 Knots
11:51 Gear Down: 188 Knots
11:51 Flaps:3 at 181 Knots
11:52 Flaps:4 at 138 Knots
11:52 Flaps:5 at 134 Knots
11:55 Wind:208º@012 Knots Heading: 204º Ground Speed: 122 Knots Altitude 597 ft
11:55 TouchDown:Rate -153 ft/min Speed: 128 Knots
11:56 VATSIM:LIEA 211120Z 21011KT 9999 FEW010 SCT018 19/15 Q1007
11:56 Land
11:56 Wind:208º@013 Knots
11:56 Heading: 209º
11:56 Flight Duration: 01:16
11:56 Landing Weight: 119488 Lbs
11:56 POS N40º 37´ 51´´ E008º 17´ 24´´
11:58 Parking brakes on
11:58 Block to Block Duration: 01:22
11:58 Final Fuel: 1719 Lbls
11:58 Spent Fuel: 9528 Lbls
11:58 Flight Length: 440 NM
11:58 TOD Land Length: 132 NM

Exportar CSV

Powered by Drupal - Modified by Danger4k